createdAt,value
2023-01-23T00:01:17.162Z,98.11
2023-01-23T00:03:43.838Z,97.60
2023-01-23T00:06:16.051Z,97.61
2023-01-23T00:08:44.310Z,97.80
2023-01-23T00:11:14.309Z,97.52
2023-01-23T00:13:40.871Z,97.57
2023-01-23T00:16:09.032Z,97.20
2023-01-23T00:18:35.993Z,97.37
2023-01-23T00:21:11.640Z,97.22
2023-01-23T00:23:38.415Z,97.82
2023-01-23T00:26:06.942Z,97.29
2023-01-23T00:28:34.847Z,97.29
2023-01-23T00:31:05.500Z,96.74
2023-01-23T00:33:32.290Z,96.85
2023-01-23T00:35:58.904Z,96.78
2023-01-23T00:38:25.572Z,98.23
2023-01-23T00:40:52.257Z,97.39
2023-01-23T00:43:18.808Z,97.19
2023-01-23T00:45:45.371Z,96.86
2023-01-23T00:48:12.756Z,96.87
2023-01-23T00:50:39.413Z,96.90
2023-01-23T00:53:06.182Z,96.93
2023-01-23T00:55:32.776Z,97.32
2023-01-23T00:58:00.248Z,96.95
2023-01-23T01:00:26.904Z,96.66
2023-01-23T01:02:53.528Z,96.75
2023-01-23T01:05:20.212Z,96.54
2023-01-23T01:07:47.976Z,97.29
2023-01-23T01:10:15.227Z,96.45
2023-01-23T01:12:41.829Z,95.85
2023-01-23T01:15:10.002Z,95.02
2023-01-23T01:17:37.314Z,95.14
2023-01-23T01:20:05.545Z,94.80
2023-01-23T01:22:32.227Z,93.99
2023-01-23T01:24:58.933Z,93.58
2023-01-23T01:27:25.917Z,93.86
2023-01-23T01:29:52.674Z,93.58
2023-01-23T01:32:19.321Z,94.03
2023-01-23T01:34:47.846Z,94.54
2023-01-23T01:37:15.759Z,94.55
2023-01-23T01:39:42.601Z,94.68
2023-01-23T01:42:09.174Z,94.26
2023-01-23T01:45:00.296Z,93.93
2023-01-23T01:47:27.449Z,94.24
2023-01-23T01:49:59.314Z,94.67
2023-01-23T01:52:26.905Z,94.89
2023-01-23T01:55:01.895Z,94.74
2023-01-23T01:57:43.552Z,94.20
2023-01-23T02:00:15.651Z,94.09
2023-01-23T02:02:51.511Z,94.04
2023-01-23T02:05:27.008Z,94.30
2023-01-23T02:08:03.655Z,94.01
2023-01-23T02:10:30.406Z,94.10
2023-01-23T02:13:36.100Z,93.78
2023-01-23T02:16:07.121Z,93.43
2023-01-23T02:18:36.905Z,94.24
2023-01-23T02:21:06.602Z,94.29
2023-01-23T02:24:04.527Z,93.49
2023-01-23T02:26:37.622Z,93.83
2023-01-23T02:29:05.697Z,94.06
2023-01-23T02:31:42.911Z,93.68
2023-01-23T02:34:13.008Z,93.47
2023-01-23T02:36:42.733Z,93.47
2023-01-23T02:39:10.739Z,93.61
2023-01-23T02:41:50.556Z,94.22
2023-01-23T02:44:33.468Z,94.07
2023-01-23T02:47:11.642Z,93.83
2023-01-23T02:49:39.959Z,94.54
2023-01-23T02:52:07.880Z,94.45
2023-01-23T02:54:36.191Z,94.30
2023-01-23T02:57:02.913Z,94.54
2023-01-23T02:59:49.266Z,94.54
2023-01-23T03:02:15.962Z,94.27
2023-01-23T03:04:42.594Z,93.98
2023-01-23T03:07:09.229Z,94.36
2023-01-23T03:09:35.966Z,94.77
2023-01-23T03:12:02.907Z,94.57
2023-01-23T03:14:31.703Z,94.23
2023-01-23T03:16:59.176Z,94.18
2023-01-23T03:19:31.289Z,94.63
2023-01-23T03:21:58.945Z,94.22
2023-01-23T03:24:25.537Z,94.52
2023-01-23T03:26:52.602Z,95.25
2023-01-23T03:29:43.812Z,95.04
2023-01-23T03:32:15.030Z,94.63
2023-01-23T03:34:42.882Z,94.87
2023-01-23T03:37:11.665Z,95.25
2023-01-23T03:39:57.960Z,94.96
2023-01-23T03:42:25.697Z,95.21
2023-01-23T03:44:55.206Z,94.84
2023-01-23T03:47:26.357Z,95.61
2023-01-23T03:49:53.946Z,95.32
2023-01-23T03:52:20.500Z,95.46
2023-01-23T03:54:47.245Z,95.14
2023-01-23T03:57:14.073Z,94.78
2023-01-23T04:00:00.923Z,94.79
2023-01-23T04:02:40.698Z,95.65
2023-01-23T04:05:09.813Z,95.22
2023-01-23T04:07:36.440Z,95.56
2023-01-23T04:10:03.713Z,96.09
2023-01-23T04:12:30.282Z,95.90
2023-01-23T04:14:57.278Z,95.76
2023-01-23T04:17:23.934Z,95.64
2023-01-23T04:19:51.205Z,95.83
2023-01-23T04:22:17.847Z,96.55
2023-01-23T04:24:47.464Z,96.30
2023-01-23T04:27:14.079Z,95.75
2023-01-23T04:29:40.888Z,95.96
2023-01-23T04:32:09.951Z,95.70
2023-01-23T04:34:41.403Z,94.48
2023-01-23T04:37:08.076Z,94.94
2023-01-23T04:39:34.679Z,95.01
2023-01-23T04:42:01.663Z,94.91
2023-01-23T04:44:48.484Z,94.39
2023-01-23T04:47:37.924Z,93.69
2023-01-23T04:50:09.395Z,93.77
2023-01-23T04:52:37.238Z,94.31
2023-01-23T04:55:04.370Z,93.98
2023-01-23T04:57:31.282Z,93.61
2023-01-23T05:00:08.293Z,93.71
2023-01-23T05:02:35.871Z,93.38
2023-01-23T05:05:02.811Z,93.31
2023-01-23T05:07:29.487Z,94.06
2023-01-23T05:10:09.690Z,94.00
2023-01-23T05:12:37.048Z,93.63
2023-01-23T05:15:04.663Z,93.66
2023-01-23T05:17:35.055Z,93.07
2023-01-23T05:20:02.427Z,92.86
2023-01-23T05:22:29.038Z,93.16
2023-01-23T05:24:55.634Z,93.36
2023-01-23T05:27:24.694Z,92.56
2023-01-23T05:29:52.341Z,91.93
2023-01-23T05:32:23.157Z,92.66
2023-01-23T05:35:08.183Z,92.72
2023-01-23T05:37:36.133Z,92.76
2023-01-23T05:40:08.207Z,92.19
2023-01-23T05:43:07.159Z,91.34
2023-01-23T05:45:59.829Z,91.25
2023-01-23T05:48:33.363Z,90.89
2023-01-23T05:51:03.439Z,91.19
2023-01-23T05:53:30.423Z,91.65
2023-01-23T05:55:57.303Z,91.74
2023-01-23T05:58:24.029Z,91.06
2023-01-23T06:00:50.758Z,89.43
2023-01-23T06:03:35.825Z,89.63
2023-01-23T06:06:17.442Z,89.67
2023-01-23T06:08:44.035Z,90.01
2023-01-23T06:11:10.653Z,89.72
2023-01-23T06:13:37.303Z,90.39
2023-01-23T06:16:04.335Z,91.15
2023-01-23T06:18:31.190Z,91.13
2023-01-23T06:21:01.347Z,90.96
2023-01-23T06:23:29.148Z,91.26
2023-01-23T06:26:03.516Z,91.92
2023-01-23T06:28:31.410Z,92.79
2023-01-23T06:31:02.581Z,93.47
2023-01-23T06:33:42.248Z,93.11
2023-01-23T06:36:11.320Z,92.95
2023-01-23T06:38:38.321Z,94.09
2023-01-23T06:41:08.929Z,94.04
2023-01-23T06:43:38.008Z,94.02
2023-01-23T06:46:11.645Z,93.57
2023-01-23T06:48:38.969Z,93.89
2023-01-23T06:51:06.385Z,94.19
2023-01-23T06:53:33.683Z,94.50
2023-01-23T06:56:02.232Z,94.32
2023-01-23T06:58:32.988Z,94.98
2023-01-23T07:00:59.806Z,94.66
2023-01-23T07:03:46.539Z,94.59
2023-01-23T07:06:14.627Z,94.68
2023-01-23T07:08:42.441Z,94.51
2023-01-23T07:11:09.783Z,94.55
2023-01-23T07:13:37.139Z,95.02
2023-01-23T07:16:04.951Z,95.10
2023-01-23T07:18:32.751Z,94.70
2023-01-23T07:21:03.471Z,94.55
2023-01-23T07:23:30.124Z,93.60
2023-01-23T07:26:00.920Z,93.66
2023-01-23T07:28:27.906Z,93.36
2023-01-23T07:30:54.547Z,93.85
2023-01-23T07:33:21.257Z,93.46
2023-01-23T07:35:47.836Z,93.09
2023-01-23T07:38:14.399Z,93.09
2023-01-23T07:40:42.906Z,93.27
2023-01-23T07:43:09.752Z,92.40
2023-01-23T07:45:36.315Z,92.35
2023-01-23T07:48:02.933Z,92.09
2023-01-23T07:50:29.527Z,92.13
2023-01-23T07:52:56.934Z,91.73
2023-01-23T07:55:23.568Z,91.34
2023-01-23T07:57:50.195Z,91.17
2023-01-23T08:00:17.143Z,91.68
2023-01-23T08:02:43.858Z,91.60
2023-01-23T08:05:10.617Z,91.78
2023-01-23T08:07:37.177Z,91.07
2023-01-23T08:10:03.975Z,91.73
2023-01-23T08:12:30.554Z,91.15
2023-01-23T08:14:57.106Z,90.76
2023-01-23T08:17:23.725Z,90.65
2023-01-23T08:19:50.286Z,90.73
2023-01-23T08:22:16.947Z,89.68
2023-01-23T08:24:43.525Z,89.32
2023-01-23T08:27:10.529Z,89.12
2023-01-23T08:29:37.147Z,88.54
2023-01-23T08:32:03.895Z,88.01
2023-01-23T08:34:30.507Z,87.94
2023-01-23T08:36:57.057Z,87.74
2023-01-23T08:39:24.738Z,87.11
2023-01-23T08:41:51.357Z,87.81
2023-01-23T08:44:18.056Z,89.22
2023-01-23T08:46:46.188Z,89.20
2023-01-23T08:49:13.620Z,88.70
2023-01-23T08:51:40.180Z,88.62
2023-01-23T08:54:06.887Z,88.48
2023-01-23T08:56:33.536Z,88.17
2023-01-23T08:59:00.093Z,87.67
2023-01-23T09:01:27.776Z,87.16
2023-01-23T09:03:54.461Z,86.95
2023-01-23T09:06:22.778Z,86.25
2023-01-23T09:08:50.065Z,85.73
2023-01-23T09:11:19.845Z,86.40
2023-01-23T09:13:47.420Z,86.08
2023-01-23T09:16:14.497Z,85.77
2023-01-23T09:18:41.152Z,84.89
2023-01-23T09:21:10.246Z,84.47
2023-01-23T09:23:37.652Z,84.60
2023-01-23T09:26:09.306Z,84.34
2023-01-23T09:28:37.352Z,83.62
2023-01-23T09:31:08.857Z,84.86
2023-01-23T09:33:35.926Z,84.41
2023-01-23T09:36:03.843Z,83.50
2023-01-23T09:38:30.436Z,82.97
2023-01-23T09:40:59.740Z,82.69
2023-01-23T09:43:32.050Z,82.77
2023-01-23T09:46:04.730Z,82.92
2023-01-23T09:48:42.742Z,82.48
2023-01-23T09:51:28.228Z,81.60
2023-01-23T09:54:01.591Z,81.50
2023-01-23T09:56:36.138Z,81.06
2023-01-23T09:59:13.466Z,80.57
2023-01-23T10:01:40.590Z,80.91
2023-01-23T10:04:11.503Z,80.25
2023-01-23T10:06:55.651Z,81.39
2023-01-23T10:09:44.807Z,81.40
2023-01-23T10:12:29.226Z,79.14
2023-01-23T10:14:58.589Z,78.60
2023-01-23T10:17:52.873Z,78.06
2023-01-23T10:20:41.431Z,78.20
2023-01-23T10:23:30.556Z,77.43
2023-01-23T10:25:58.492Z,77.48
2023-01-23T10:28:42.561Z,77.73
2023-01-23T10:31:21.775Z,78.17
2023-01-23T10:34:03.447Z,77.50
2023-01-23T10:36:54.691Z,76.46
2023-01-23T10:39:32.820Z,76.32
2023-01-23T10:42:02.317Z,76.18
2023-01-23T10:44:29.747Z,76.17
2023-01-23T10:47:01.646Z,76.94
2023-01-23T10:49:37.736Z,76.91
2023-01-23T10:52:05.686Z,76.67
2023-01-23T10:54:45.924Z,76.50
2023-01-23T10:57:12.406Z,76.64
2023-01-23T10:59:51.141Z,77.39
2023-01-23T11:02:22.182Z,78.17
2023-01-23T11:04:51.930Z,78.81
2023-01-23T11:07:36.538Z,79.20
2023-01-23T11:10:12.099Z,77.49
2023-01-23T11:13:21.303Z,77.16
2023-01-23T11:15:48.642Z,77.49
2023-01-23T11:18:39.684Z,78.67
2023-01-23T11:21:06.271Z,77.83
2023-01-23T11:23:34.486Z,77.12
2023-01-23T11:26:03.227Z,77.08
2023-01-23T11:28:35.119Z,76.93
2023-01-23T11:31:16.683Z,77.36
2023-01-23T11:33:53.173Z,77.93
2023-01-23T11:36:19.785Z,76.89
2023-01-23T11:38:57.674Z,76.04
2023-01-23T11:41:30.713Z,76.21
2023-01-23T11:43:57.469Z,75.86
2023-01-23T11:46:35.525Z,76.16
2023-01-23T11:49:11.583Z,75.55
2023-01-23T11:51:49.505Z,75.53
2023-01-23T11:54:50.859Z,74.96
2023-01-23T11:57:29.340Z,75.76
2023-01-23T12:00:12.127Z,74.68
2023-01-23T12:02:53.684Z,74.97
2023-01-23T12:05:38.751Z,75.65
2023-01-23T12:08:36.254Z,74.95
2023-01-23T12:11:16.652Z,74.67
2023-01-23T12:13:45.953Z,75.53
2023-01-23T12:16:18.421Z,75.65
2023-01-23T12:19:03.041Z,75.17
2023-01-23T12:21:48.085Z,74.77
2023-01-23T12:24:39.492Z,74.88
2023-01-23T12:27:18.816Z,74.84
2023-01-23T12:30:03.227Z,75.80
2023-01-23T12:32:52.449Z,74.82
2023-01-23T12:35:55.010Z,75.46
2023-01-23T12:38:31.517Z,75.42
2023-01-23T12:41:17.048Z,74.31
2023-01-23T12:44:11.239Z,73.57
2023-01-23T12:46:50.935Z,72.78
2023-01-23T12:49:50.842Z,74.37
2023-01-23T12:52:27.247Z,73.75
2023-01-23T12:55:15.720Z,73.04
2023-01-23T12:58:00.157Z,73.39
2023-01-23T13:00:53.000Z,73.54
2023-01-23T13:03:54.074Z,72.59
2023-01-23T13:06:58.303Z,72.81
2023-01-23T13:09:32.516Z,73.46
2023-01-23T13:12:05.301Z,72.72
2023-01-23T13:14:43.453Z,73.27
2023-01-23T13:17:37.884Z,73.12
2023-01-23T13:21:11.635Z,73.56
2023-01-23T13:23:38.386Z,74.04
2023-01-23T13:26:20.646Z,73.54
2023-01-23T13:28:53.902Z,73.77
2023-01-23T13:31:32.859Z,73.90
2023-01-23T13:34:14.524Z,74.36
2023-01-23T13:36:50.482Z,74.81
2023-01-23T13:39:17.092Z,75.33
2023-01-23T13:41:49.692Z,74.87
2023-01-23T13:44:21.349Z,75.02
2023-01-23T14:22:05.321Z,78.74
2023-01-23T14:24:47.432Z,78.68
2023-01-23T14:30:23.916Z,79.39
2023-01-23T14:32:50.572Z,79.55
2023-01-23T14:35:19.477Z,79.91
2023-01-23T14:37:46.965Z,80.67
2023-01-23T14:40:27.230Z,80.62
2023-01-23T14:43:02.314Z,80.43
2023-01-23T14:45:33.802Z,80.72
2023-01-23T14:48:07.612Z,81.29
2023-01-23T14:50:35.033Z,80.91
2023-01-23T14:53:04.793Z,81.54
2023-01-23T14:55:36.363Z,81.45
2023-01-23T14:58:04.022Z,82.36
2023-01-23T15:00:31.170Z,82.18
2023-01-23T15:02:57.745Z,82.93
2023-01-23T15:05:27.363Z,82.59
2023-01-23T15:07:58.040Z,82.45
2023-01-23T15:10:29.671Z,83.21
2023-01-23T15:13:12.071Z,83.18
2023-01-23T15:15:44.433Z,83.57
2023-01-23T15:18:28.739Z,83.78
2023-01-23T15:20:58.509Z,83.92
2023-01-23T15:23:25.604Z,84.37
2023-01-23T15:26:14.225Z,84.61
2023-01-23T15:28:40.985Z,85.17
2023-01-23T15:31:30.448Z,85.10
2023-01-23T15:34:16.580Z,85.49
2023-01-23T15:36:54.392Z,85.72
2023-01-23T15:39:29.095Z,86.08
2023-01-23T15:42:05.228Z,85.46
2023-01-23T15:44:32.982Z,85.79
2023-01-23T15:47:03.973Z,86.09
2023-01-23T15:49:32.719Z,86.61
2023-01-23T15:52:21.459Z,86.29
2023-01-23T15:54:51.179Z,86.41
2023-01-23T15:57:18.080Z,86.13
2023-01-23T15:59:44.664Z,86.18
2023-01-23T16:02:30.748Z,86.96
2023-01-23T16:04:58.458Z,87.21
2023-01-23T16:07:26.933Z,86.87
2023-01-23T16:09:55.065Z,86.94
2023-01-23T16:12:29.512Z,87.27
2023-01-23T16:14:57.098Z,87.32
2023-01-23T16:17:23.906Z,87.44
2023-01-23T16:19:50.737Z,87.53
2023-01-23T16:22:29.361Z,87.44
2023-01-23T16:24:57.558Z,87.45
2023-01-23T16:27:27.598Z,87.40
2023-01-23T16:29:55.660Z,86.93
2023-01-23T16:32:22.856Z,87.25
2023-01-23T16:34:49.791Z,87.12
2023-01-23T16:37:18.793Z,87.06
2023-01-23T16:39:46.421Z,87.20
2023-01-23T16:42:19.972Z,87.27
2023-01-23T16:44:46.658Z,87.19
2023-01-23T16:47:13.538Z,87.06
2023-01-23T16:49:51.527Z,87.30
2023-01-23T16:52:19.261Z,87.71
2023-01-23T16:54:45.912Z,87.24
2023-01-23T16:57:20.040Z,87.38
2023-01-23T16:59:48.182Z,86.81
2023-01-23T17:02:29.187Z,87.02
2023-01-23T17:04:55.891Z,87.56
2023-01-23T17:07:22.617Z,87.62
2023-01-23T17:09:49.371Z,86.87
2023-01-23T17:12:25.030Z,87.16
2023-01-23T17:14:52.653Z,86.63
2023-01-23T17:17:28.816Z,87.20
2023-01-23T17:19:55.618Z,87.21
2023-01-23T17:22:26.324Z,86.26
2023-01-23T17:24:53.312Z,85.78
2023-01-23T17:27:19.884Z,86.38
2023-01-23T17:29:46.541Z,86.85
2023-01-23T17:32:26.705Z,87.82
2023-01-23T17:34:53.421Z,87.43
2023-01-23T17:37:22.656Z,87.39
2023-01-23T17:39:49.404Z,87.19
2023-01-23T17:42:16.045Z,87.86
2023-01-23T17:44:42.647Z,87.27
2023-01-23T17:47:12.177Z,87.39
2023-01-23T17:49:39.437Z,87.69
2023-01-23T17:52:06.564Z,87.66
2023-01-23T17:54:33.223Z,86.95
2023-01-23T17:56:59.973Z,86.59
2023-01-23T17:59:27.423Z,86.66
2023-01-23T18:01:54.376Z,86.51
2023-01-23T18:04:24.432Z,86.73
2023-01-23T18:06:51.243Z,86.39
2023-01-23T18:09:18.950Z,86.43
2023-01-23T18:11:52.397Z,86.92
2023-01-23T18:14:51.454Z,87.13
2023-01-23T18:17:37.447Z,86.84
2023-01-23T18:20:16.301Z,86.16
2023-01-23T18:22:43.116Z,86.86
2023-01-23T18:25:14.898Z,86.97
2023-01-23T18:27:42.207Z,87.04
2023-01-23T18:30:21.610Z,87.09
2023-01-23T18:33:40.081Z,87.17
2023-01-23T18:36:26.036Z,87.31
2023-01-23T18:39:27.539Z,87.17
2023-01-23T18:42:24.978Z,87.45
2023-01-23T18:44:56.683Z,87.30
2023-01-23T18:47:25.408Z,87.53
2023-01-23T18:49:52.815Z,87.50
2023-01-23T18:52:30.891Z,87.43
2023-01-23T18:55:05.333Z,87.23
2023-01-23T18:58:09.359Z,87.47
2023-01-23T19:00:52.807Z,87.67
2023-01-23T19:03:28.238Z,88.24
2023-01-23T19:05:55.035Z,88.24
2023-01-23T19:08:30.817Z,87.98
2023-01-23T19:11:06.042Z,88.27
2023-01-23T19:13:44.784Z,88.72
2023-01-23T19:16:30.516Z,88.89
2023-01-23T19:19:25.138Z,88.73
2023-01-23T19:21:51.974Z,89.01
2023-01-23T19:24:19.612Z,88.95
2023-01-23T19:26:47.099Z,88.75
2023-01-23T19:29:21.977Z,88.29
2023-01-23T19:32:06.662Z,88.33
2023-01-23T19:34:34.211Z,89.06
2023-01-23T19:37:00.903Z,88.90
2023-01-23T19:39:27.448Z,89.54
2023-01-23T19:41:54.417Z,90.14
2023-01-23T19:44:24.065Z,89.92
2023-01-23T19:46:51.904Z,89.60
2023-01-23T19:49:18.563Z,89.49
2023-01-23T19:51:45.256Z,89.39
2023-01-23T19:54:14.382Z,89.96
2023-01-23T19:56:42.285Z,89.90
2023-01-23T19:59:09.328Z,89.78
2023-01-23T20:01:40.234Z,90.17
2023-01-23T20:04:17.651Z,90.63
2023-01-23T20:06:45.609Z,90.24
2023-01-23T20:09:17.517Z,91.02
2023-01-23T20:11:45.046Z,90.77
2023-01-23T20:14:12.487Z,90.97
2023-01-23T20:16:41.003Z,91.08
2023-01-23T20:19:07.747Z,90.80
2023-01-23T20:21:34.474Z,90.92
2023-01-23T20:24:01.112Z,91.22
2023-01-23T20:26:27.739Z,91.33
2023-01-23T20:28:54.375Z,90.96
2023-01-23T20:31:22.257Z,91.08
2023-01-23T20:33:49.278Z,90.67
2023-01-23T20:36:16.113Z,90.75
2023-01-23T20:38:43.205Z,90.84
2023-01-23T20:41:14.722Z,90.89
2023-01-23T20:43:45.024Z,91.00
2023-01-23T20:46:13.788Z,90.85
2023-01-23T20:48:43.887Z,91.35
2023-01-23T20:51:11.254Z,90.98
2023-01-23T20:53:39.878Z,91.38
2023-01-23T20:56:09.652Z,91.59
2023-01-23T20:58:58.411Z,91.26
2023-01-23T21:01:28.100Z,91.59
2023-01-23T21:03:54.847Z,91.65
2023-01-23T21:06:22.250Z,91.06
2023-01-23T21:08:49.119Z,90.68
2023-01-23T21:11:18.596Z,90.74
2023-01-23T21:13:51.142Z,90.88
2023-01-23T21:16:18.875Z,90.83
2023-01-23T21:18:47.113Z,90.92
2023-01-23T21:21:20.241Z,90.94
2023-01-23T21:23:49.305Z,91.13
2023-01-23T21:26:22.434Z,90.87
2023-01-23T21:28:51.255Z,91.42
2023-01-23T21:31:22.477Z,91.53
2023-01-23T21:33:49.357Z,91.02
2023-01-23T21:36:19.861Z,90.81
2023-01-23T21:38:47.126Z,90.60
2023-01-23T21:41:13.762Z,90.72
2023-01-23T21:43:40.640Z,90.98
2023-01-23T21:46:07.378Z,91.21
2023-01-23T21:48:34.993Z,91.15
2023-01-23T21:51:08.405Z,91.20
2023-01-23T21:53:40.755Z,91.34
2023-01-23T21:56:08.135Z,91.38
2023-01-23T21:58:35.021Z,91.59
2023-01-23T22:01:25.187Z,91.71
2023-01-23T22:03:52.711Z,91.40
2023-01-23T22:06:19.615Z,91.01
2023-01-23T22:08:46.516Z,90.79
2023-01-23T22:11:13.239Z,91.42
2023-01-23T22:13:40.156Z,90.91
2023-01-23T22:16:07.348Z,91.43
2023-01-23T22:18:34.151Z,91.24
2023-01-23T22:21:03.547Z,90.71
2023-01-23T22:23:31.723Z,91.09
2023-01-23T22:26:01.244Z,91.04
2023-01-23T22:28:28.321Z,91.31
2023-01-23T22:30:55.921Z,91.04
2023-01-23T22:33:24.058Z,91.43
2023-01-23T22:35:52.288Z,91.41
2023-01-23T22:38:18.868Z,91.34
2023-01-23T22:40:45.452Z,91.28
2023-01-23T22:43:12.036Z,91.13
2023-01-23T22:45:38.653Z,91.20
2023-01-23T22:48:05.513Z,91.13
2023-01-23T22:50:32.079Z,91.39
2023-01-23T22:52:58.660Z,91.00
2023-01-23T22:55:25.222Z,91.11
2023-01-23T22:57:53.261Z,91.67
2023-01-23T23:00:20.601Z,91.77
2023-01-23T23:02:47.492Z,91.39
2023-01-23T23:05:14.281Z,91.12
2023-01-23T23:07:40.848Z,91.31
2023-01-23T23:10:09.452Z,91.19
2023-01-23T23:12:36.004Z,90.97
2023-01-23T23:15:03.226Z,91.33
2023-01-23T23:17:30.244Z,91.18
2023-01-23T23:19:56.885Z,91.66
2023-01-23T23:22:23.579Z,91.30
2023-01-23T23:24:50.161Z,90.99
2023-01-23T23:27:16.767Z,91.41
2023-01-23T23:29:43.343Z,91.52
2023-01-23T23:32:09.994Z,91.57
2023-01-23T23:34:37.451Z,91.12
2023-01-23T23:37:04.372Z,91.22
2023-01-23T23:39:30.978Z,91.31
2023-01-23T23:41:58.560Z,90.52
2023-01-23T23:44:25.245Z,90.28
2023-01-23T23:46:51.799Z,90.17
2023-01-23T23:49:18.409Z,90.34
2023-01-23T23:51:44.963Z,90.37
2023-01-23T23:54:11.503Z,90.03
2023-01-23T23:56:38.066Z,89.65
2023-01-23T23:59:04.638Z,89.77
